Time;durP1;ratioP1;P1;durP2;ratioP2;P2;SDS_P1;SDS_P2;PMS_P1;PMS_P2;Temp;Humidity;BMP_temperature;BMP_pressure;BME280_temperature;BME280_humidity;BME280_pressure;Samples;Min_cycle;Max_cycle;Signal;HPM_P1;HPM_P2
2023/09/03 00:00:38;;;;;;;12.68;3.95;;;;;;;23.76;55.73;99166.69;5098224;28;20438;-45
2023/09/03 00:03:05;;;;;;;9.05;3.50;;;;;;;23.55;56.21;99174.03;5097004;28;20065;-45
2023/09/03 00:05:31;;;;;;;6.63;3.85;;;;;;;23.37;55.73;99189.59;5096907;28;20051;-45
2023/09/03 00:07:57;;;;;;;7.72;3.17;;;;;;;23.11;56.01;99189.66;5098159;28;20028;-45
2023/09/03 00:10:23;;;;;;;14.88;5.78;;;;;;;22.98;57.16;99192.03;5096811;28;20453;-45
2023/09/03 00:12:49;;;;;;;27.35;14.63;;;;;;;23.45;57.38;99191.72;5098059;28;20060;-45
2023/09/03 00:15:15;;;;;;;19.40;9.40;;;;;;;23.52;56.13;99194.09;5097827;28;20429;-45
2023/09/03 00:17:43;;;;;;;9.32;5.30;;;;;;;23.21;56.42;99202.22;5096762;28;20543;-45
2023/09/03 00:20:10;;;;;;;7.22;3.83;;;;;;;22.83;57.26;99211.59;5098015;28;20020;-45
2023/09/03 00:22:35;;;;;;;10.65;3.80;;;;;;;22.49;58.17;99207.56;5097852;28;20517;-45
2023/09/03 00:25:01;;;;;;;12.48;4.20;;;;;;;22.34;58.76;99208.34;5098016;28;20031;-45
2023/09/03 00:27:27;;;;;;;8.82;5.68;;;;;;;22.25;59.45;99214.47;5093774;28;20024;-45
2023/09/03 00:29:53;;;;;;;7.97;3.72;;;;;;;22.10;59.65;99207.19;5095009;28;20032;-45
2023/09/03 00:32:19;;;;;;;5.28;3.00;;;;;;;21.96;59.69;99198.88;5094925;28;20052;-45
2023/09/03 00:34:45;;;;;;;4.90;2.90;;;;;;;21.76;60.25;99186.25;5093380;28;20060;-45
2023/09/03 00:37:12;;;;;;;5.30;3.40;;;;;;;21.58;61.05;99182.16;5094693;28;20056;-45
2023/09/03 00:39:38;;;;;;;10.63;4.15;;;;;;;21.53;62.22;99179.44;5094581;28;20054;-45
2023/09/03 00:42:03;;;;;;;10.85;3.78;;;;;;;21.69;62.60;99167.78;5094429;28;20068;-45
2023/09/03 00:44:29;;;;;;;6.95;3.38;;;;;;;21.67;62.42;99167.25;5093221;28;20027;-45
2023/09/03 00:46:55;;;;;;;8.85;3.97;;;;;;;21.46;62.37;99174.34;5093201;28;20095;-45
2023/09/03 00:49:23;;;;;;;9.05;4.38;;;;;;;21.24;63.39;99179.00;5093103;28;20016;-45
2023/09/03 00:51:52;;;;;;;7.60;3.85;;;;;;;21.07;64.19;99177.31;5094258;28;20051;-45
2023/09/03 00:54:21;;;;;;;10.15;5.45;;;;;;;21.08;64.38;99170.09;5094367;28;20035;-45
2023/09/03 00:56:49;;;;;;;16.02;5.63;;;;;;;21.07;64.95;99166.63;5094251;28;20150;-45
2023/09/03 00:59:18;;;;;;;19.33;7.03;;;;;;;21.15;64.71;99162.69;5076064;28;20028;-45
2023/09/03 01:01:44;;;;;;;7.07;4.28;;;;;;;21.21;64.89;99152.81;5094292;28;20093;-45
2023/09/03 01:04:10;;;;;;;14.68;5.90;;;;;;;21.10;64.62;99150.09;5094110;28;20026;-45
2023/09/03 01:06:36;;;;;;;6.82;3.72;;;;;;;21.10;64.60;99154.63;5094087;28;20020;-45
2023/09/03 01:09:02;;;;;;;6.97;3.50;;;;;;;20.92;65.11;99167.31;5092743;28;20035;-45
2023/09/03 01:11:53;;;;;;;7.43;3.83;;;;;;;20.75;65.85;99175.47;5093874;28;20013;-45
2023/09/03 01:14:48;;;;;;;7.20;3.90;;;;;;;20.55;66.44;99172.63;5093728;28;20105;-45
2023/09/03 01:17:26;;;;;;;10.18;5.57;;;;;;;20.58;67.62;99180.09;5093881;28;20020;-45
2023/09/03 01:20:04;;;;;;;8.30;4.55;;;;;;;21.06;66.77;99170.34;5093859;28;20039;-45
2023/09/03 01:22:41;;;;;;;15.52;4.70;;;;;;;21.24;65.48;99171.00;5093994;28;20027;-45
2023/09/03 01:25:24;;;;;;;8.48;4.15;;;;;;;21.24;65.12;99173.66;5093788;28;20429;-45
2023/09/03 01:28:14;;;;;;;13.95;4.40;;;;;;;21.45;65.41;99172.75;5093683;28;20025;-45
2023/09/03 01:30:41;;;;;;;16.05;5.13;;;;;;;21.79;64.00;99176.88;5093661;28;20478;-45
2023/09/03 01:33:08;;;;;;;11.30;3.45;;;;;;;22.06;63.07;99172.16;5092268;28;20508;-45
2023/09/03 01:35:36;;;;;;;7.50;4.05;;;;;;;22.16;62.56;99178.63;5092313;28;20063;-45
2023/09/03 01:38:02;;;;;;;10.95;7.25;;;;;;;21.98;61.87;99185.25;5093339;28;20016;-45
2023/09/03 01:40:27;;;;;;;9.88;5.47;;;;;;;21.53;62.80;99185.63;5093379;28;20028;-45
2023/09/03 01:42:53;;;;;;;10.48;4.30;;;;;;;21.31;63.46;99182.28;5093576;28;20028;-45
2023/09/03 01:45:18;;;;;;;7.80;3.72;;;;;;;21.06;64.32;99188.25;5093300;28;20028;-45
2023/09/03 01:47:59;;;;;;;18.50;5.40;;;;;;;20.92;65.43;99193.22;5091952;28;20036;-45
2023/09/03 01:50:37;;;;;;;7.68;3.90;;;;;;;20.99;65.25;99188.47;5091896;28;20031;-45
2023/09/03 01:53:32;;;;;;;14.02;4.25;;;;;;;21.09;65.12;99201.88;5092075;28;20028;-45
2023/09/03 01:56:02;;;;;;;9.47;4.70;;;;;;;21.08;64.63;99215.47;5074369;28;20036;-45
2023/09/03 01:58:32;;;;;;;19.60;4.63;;;;;;;21.07;65.31;99217.34;5093035;28;20101;-45
2023/09/03 02:01:02;;;;;;;6.32;3.97;;;;;;;21.39;64.98;99219.16;5091667;28;20062;-45
2023/09/03 02:03:29;;;;;;;6.18;3.33;;;;;;;21.44;63.82;99215.75;5091658;28;20470;-45
2023/09/03 02:05:55;;;;;;;7.45;3.83;;;;;;;21.18;63.56;99214.75;5091645;28;20035;-45
2023/09/03 02:08:21;;;;;;;8.27;4.22;;;;;;;20.81;64.55;99213.69;5092922;28;20024;-45
2023/09/03 02:10:46;;;;;;;6.22;3.45;;;;;;;20.48;65.57;99212.00;5092811;28;20024;-45
2023/09/03 02:13:12;;;;;;;12.63;4.78;;;;;;;20.35;66.62;99210.56;5092611;28;20123;-45
2023/09/03 02:15:38;;;;;;;21.48;6.28;;;;;;;20.71;67.59;99205.59;5092696;28;20027;-45
2023/09/03 02:18:04;;;;;;;17.90;4.03;;;;;;;21.38;65.76;99203.41;5091394;28;20054;-45
2023/09/03 02:20:29;;;;;;;13.65;5.07;;;;;;;21.60;64.08;99198.72;5091298;28;20104;-45
2023/09/03 02:22:55;;;;;;;11.77;4.82;;;;;;;21.40;63.28;99204.72;5091236;28;20032;-45
2023/09/03 02:25:20;;;;;;;21.50;8.18;;;;;;;21.22;64.24;99195.28;5091548;28;20024;-45
2023/09/03 02:27:46;;;;;;;10.57;4.90;;;;;;;21.25;63.88;99201.97;5091201;28;20024;-44
2023/09/03 02:30:12;;;;;;;8.07;4.57;;;;;;;21.11;64.63;99198.97;5091452;28;20042;-45
2023/09/03 02:32:38;;;;;;;11.73;5.15;;;;;;;21.39;64.63;99188.97;5092395;28;20040;-45
2023/09/03 02:35:04;;;;;;;17.42;4.90;;;;;;;21.76;63.75;99194.25;5092320;28;20497;-45
2023/09/03 02:37:29;;;;;;;20.38;5.68;;;;;;;21.91;63.07;99204.19;5091048;28;20059;-45
2023/09/03 02:39:55;;;;;;;12.32;4.95;;;;;;;22.12;62.36;99216.56;5091021;28;20055;-45
2023/09/03 02:42:21;;;;;;;9.15;4.60;;;;;;;21.96;61.29;99214.13;5090843;28;20028;-45
2023/09/03 02:44:46;;;;;;;14.60;5.90;;;;;;;21.62;62.99;99215.28;5090994;28;20023;-45
2023/09/03 02:47:12;;;;;;;17.08;6.57;;;;;;;21.70;63.38;99222.81;5092256;28;20541;-45
2023/09/03 02:49:38;;;;;;;14.52;7.07;;;;;;;21.85;62.80;99214.06;5091761;28;20081;-45
2023/09/03 02:52:04;;;;;;;6.03;3.70;;;;;;;21.83;62.08;99221.56;5092047;28;20035;-45
2023/09/03 02:54:29;;;;;;;13.15;4.10;;;;;;;21.51;62.21;99224.31;5073976;28;20020;-45
2023/09/03 02:56:55;;;;;;;12.90;4.80;;;;;;;21.23;63.01;99220.94;5090768;28;20031;-45
2023/09/03 02:59:20;;;;;;;17.27;5.18;;;;;;;21.40;63.97;99227.97;5092048;28;20032;-45
2023/09/03 03:01:46;;;;;;;17.08;5.90;;;;;;;21.98;63.69;99223.47;5090641;28;20492;-45
2023/09/03 03:04:12;;;;;;;11.38;4.28;;;;;;;22.63;62.04;99228.44;5090705;28;20509;-45
2023/09/03 03:06:37;;;;;;;13.25;4.45;;;;;;;23.04;60.64;99218.59;5091987;28;20032;-45
2023/09/03 03:09:05;;;;;;;10.07;4.97;;;;;;;23.15;58.96;99226.63;5090630;28;20039;-45
2023/09/03 03:11:30;;;;;;;8.75;3.67;;;;;;;22.85;58.67;99225.53;5090546;28;20020;-45
2023/09/03 03:13:56;;;;;;;7.03;3.78;;;;;;;22.24;59.34;99210.22;5091705;28;20509;-45
2023/09/03 03:16:22;;;;;;;11.68;3.70;;;;;;;21.61;60.43;99213.69;5090532;28;20027;-45
2023/09/03 03:18:47;;;;;;;6.70;3.40;;;;;;;21.13;62.22;99218.19;5091892;28;20032;-45
2023/09/03 03:21:17;;;;;;;11.63;3.47;;;;;;;20.83;63.02;99224.09;5091818;28;20520;-45
2023/09/03 03:23:46;;;;;;;7.63;3.60;;;;;;;20.51;64.61;99222.97;5091863;28;20020;-45
2023/09/03 03:26:12;;;;;;;11.77;4.63;;;;;;;20.30;65.39;99237.97;5090537;28;20030;-45
2023/09/03 03:28:38;;;;;;;17.38;7.35;;;;;;;20.38;66.45;99227.91;5092004;28;20036;-45
2023/09/03 03:31:11;;;;;;;11.00;4.50;;;;;;;20.86;66.08;99234.25;5090504;28;20020;-45
2023/09/03 03:33:43;;;;;;;11.95;4.72;;;;;;;21.20;65.21;99233.97;5091688;28;20066;-45
2023/09/03 03:36:17;;;;;;;11.00;4.50;;;;;;;21.56;64.18;99232.34;5090453;28;20028;-46
2023/09/03 03:38:44;;;;;;;12.73;4.90;;;;;;;21.53;62.83;99231.03;5091717;28;20020;-45
2023/09/03 03:41:11;;;;;;;10.93;3.63;;;;;;;21.20;62.98;99231.31;5090239;28;20113;-45
2023/09/03 03:43:38;;;;;;;10.07;4.45;;;;;;;20.96;64.22;99229.00;5091587;28;20031;-45
2023/09/03 03:46:05;;;;;;;17.65;4.68;;;;;;;21.11;64.78;99229.13;5091595;28;20064;-45
2023/09/03 03:48:31;;;;;;;11.55;4.00;;;;;;;21.39;63.99;99226.34;5091477;28;20017;-45
2023/09/03 03:50:57;;;;;;;17.55;4.93;;;;;;;21.34;63.24;99221.78;5091608;28;20104;-45
2023/09/03 03:53:23;;;;;;;10.05;4.47;;;;;;;21.27;63.63;99223.88;5091550;28;20051;-45
2023/09/03 03:55:57;;;;;;;9.35;4.13;;;;;;;21.05;64.07;99227.47;5090147;28;20060;-45
2023/09/03 03:58:23;;;;;;;5.13;3.40;;;;;;;20.79;64.29;99228.34;5091831;28;20036;-45
2023/09/03 04:00:49;;;;;;;12.43;4.35;;;;;;;20.57;64.56;99229.19;5090156;28;20455;-45
2023/09/03 04:03:14;;;;;;;8.52;4.10;;;;;;;20.37;65.21;99240.44;5092385;28;20111;-45
2023/09/03 04:05:40;;;;;;;8.32;3.75;;;;;;;20.11;65.57;99234.81;5093953;28;20060;-45
2023/09/03 04:08:05;;;;;;;12.77;4.63;;;;;;;19.88;66.48;99248.38;5093862;28;20035;-45
2023/09/03 04:10:31;;;;;;;10.60;4.95;;;;;;;19.72;67.23;99252.75;5094161;28;20032;-45
2023/09/03 04:12:57;;;;;;;12.27;4.80;;;;;;;19.77;68.43;99254.66;5094903;28;20035;-45
2023/09/03 04:15:22;;;;;;;19.63;5.80;;;;;;;20.14;68.58;99247.66;5093779;28;20130;-45
2023/09/03 04:17:48;;;;;;;24.38;7.03;;;;;;;20.79;67.91;99233.69;5093730;28;20099;-45
2023/09/03 04:20:14;;;;;;;18.10;5.35;;;;;;;21.42;65.90;99229.31;5093949;28;20555;-45
2023/09/03 04:22:39;;;;;;;10.48;4.40;;;;;;;21.49;64.08;99235.28;5093539;28;20102;-45
2023/09/03 04:25:07;;;;;;;13.82;3.75;;;;;;;21.30;63.79;99234.84;5094903;28;20047;-45
2023/09/03 04:27:32;;;;;;;10.27;4.18;;;;;;;21.04;63.76;99231.19;5093531;28;20062;-45
2023/09/03 04:29:58;;;;;;;9.93;4.13;;;;;;;20.85;64.31;99232.66;5094827;28;20114;-45
2023/09/03 04:32:24;;;;;;;10.15;4.40;;;;;;;20.65;64.86;99233.28;5094768;28;20074;-45
2023/09/03 04:34:50;;;;;;;19.83;5.45;;;;;;;20.63;65.65;99238.88;5094999;28;20071;-45
2023/09/03 04:37:16;;;;;;;25.98;7.50;;;;;;;21.06;65.83;99241.63;5094659;28;20028;-45
2023/09/03 04:39:41;;;;;;;16.83;6.38;;;;;;;21.57;64.12;99243.84;5093642;28;20023;-45
2023/09/03 04:42:07;;;;;;;7.95;5.40;;;;;;;21.69;63.50;99247.94;5094747;28;20047;-45
2023/09/03 04:44:37;;;;;;;12.82;5.55;;;;;;;21.57;63.19;99244.66;5093267;28;20446;-45
2023/09/03 04:47:05;;;;;;;20.40;4.95;;;;;;;21.61;63.44;99253.78;5094830;28;20020;-45
2023/09/03 04:49:33;;;;;;;14.40;5.32;;;;;;;21.85;62.45;99258.69;5094490;28;20436;-45
2023/09/03 04:51:58;;;;;;;13.38;4.55;;;;;;;21.94;61.93;99259.81;5093231;28;20111;-45
2023/09/03 04:54:24;;;;;;;10.75;4.10;;;;;;;21.76;61.40;99260.25;5094419;28;20063;-45
2023/09/03 04:56:50;;;;;;;8.07;3.30;;;;;;;21.29;61.63;99259.16;5094367;28;20024;-45
2023/09/03 04:59:15;;;;;;;12.73;4.07;;;;;;;20.77;62.42;99265.13;5092962;28;20518;-45
2023/09/03 05:01:42;;;;;;;5.82;3.83;;;;;;;20.31;63.89;99266.22;5092833;28;20021;-45
2023/09/03 05:04:08;;;;;;;5.85;3.58;;;;;;;19.93;65.11;99267.13;5094247;28;20024;-45
2023/09/03 05:06:34;;;;;;;14.73;4.30;;;;;;;19.63;66.09;99270.94;5093088;28;20023;-45
2023/09/03 05:08:59;;;;;;;10.25;4.93;;;;;;;19.63;67.24;99281.59;5094091;28;20128;-45
2023/09/03 05:11:25;;;;;;;10.20;4.18;;;;;;;19.64;67.16;99277.06;5092652;28;20032;-45
2023/09/03 05:13:51;;;;;;;8.65;4.15;;;;;;;19.62;67.42;99274.69;5093173;28;20082;-44
2023/09/03 05:16:16;;;;;;;13.68;4.38;;;;;;;19.69;67.80;99285.16;5093861;28;20043;-45
2023/09/03 05:18:42;;;;;;;5.43;3.58;;;;;;;19.70;67.36;99287.56;5093897;28;20063;-44
2023/09/03 05:21:09;;;;;;;15.55;4.25;;;;;;;19.61;67.72;99289.03;5092426;28;20052;-45
2023/09/03 05:23:35;;;;;;;9.02;3.92;;;;;;;19.77;67.90;99294.59;5092514;28;20237;-44
2023/09/03 05:26:05;;;;;;;14.18;4.22;;;;;;;19.95;68.08;99296.97;5093988;28;20020;-44
2023/09/03 05:28:32;;;;;;;14.48;4.57;;;;;;;20.33;67.14;99296.13;5092404;28;20024;-45
2023/09/03 05:30:58;;;;;;;17.02;5.03;;;;;;;20.81;66.41;99300.91;5093630;28;20031;-45
2023/09/03 05:33:23;;;;;;;8.57;4.15;;;;;;;21.35;64.80;99301.63;5093564;28;20036;-45
2023/09/03 05:35:49;;;;;;;6.55;4.18;;;;;;;21.86;62.42;99295.84;5093500;28;20012;-45
2023/09/03 05:38:14;;;;;;;6.78;4.07;;;;;;;22.03;60.69;99298.31;5092193;28;20031;-45
2023/09/03 05:40:41;;;;;;;10.82;4.10;;;;;;;22.17;60.13;99290.63;5093430;28;20031;-45
2023/09/03 05:43:07;;;;;;;10.57;3.95;;;;;;;22.42;59.18;99281.13;5092092;28;20468;-45
2023/09/03 05:45:32;;;;;;;8.40;4.20;;;;;;;22.69;58.31;99284.38;5091994;28;20107;-45
2023/09/03 05:47:58;;;;;;;10.20;4.30;;;;;;;23.02;57.08;99286.84;5091967;28;20036;-45
2023/09/03 05:50:24;;;;;;;9.52;3.58;;;;;;;23.27;56.16;99294.88;5093222;28;20024;-45
2023/09/03 05:52:49;;;;;;;17.10;3.90;;;;;;;23.44;55.97;99297.28;5091895;28;20120;-45
2023/09/03 05:55:15;;;;;;;9.55;3.83;;;;;;;23.63;55.31;99291.34;5091826;28;20458;-45
2023/09/03 05:57:41;;;;;;;8.45;3.97;;;;;;;23.76;54.61;99308.72;5093102;28;20034;-45
2023/09/03 06:00:07;;;;;;;23.10;5.38;;;;;;;24.08;55.18;99308.41;5093100;28;20043;-45
2023/09/03 06:02:36;;;;;;;10.23;5.47;;;;;;;24.67;53.59;99304.09;5092927;28;20412;-45
2023/09/03 06:05:02;;;;;;;15.13;5.60;;;;;;;24.88;52.52;99305.56;5092980;28;20081;-45
2023/09/03 06:07:28;;;;;;;9.27;5.55;;;;;;;25.02;51.75;99313.81;5092923;28;20028;-45
2023/09/03 06:09:53;;;;;;;30.60;7.20;;;;;;;24.82;52.01;99311.28;5091558;28;20032;-45
2023/09/03 06:12:19;;;;;;;15.45;6.75;;;;;;;24.76;52.11;99309.69;5092816;28;20031;-45
2023/09/03 06:14:44;;;;;;;7.22;5.05;;;;;;;24.77;51.71;99313.97;5091317;28;20136;-45
2023/09/03 06:17:10;;;;;;;7.05;4.68;;;;;;;25.07;51.13;99311.09;5091435;28;20047;-45
2023/09/03 06:19:36;;;;;;;16.65;5.03;;;;;;;25.62;49.97;99321.66;5092732;28;20063;-45
2023/09/03 06:22:02;;;;;;;10.32;3.92;;;;;;;26.23;48.41;99330.16;5092538;28;20052;-45
2023/09/03 06:24:27;;;;;;;14.52;5.15;;;;;;;26.62;46.30;99329.94;5092103;28;20030;-45
2023/09/03 06:26:53;;;;;;;6.93;3.50;;;;;;;26.85;46.20;99336.34;5092241;28;20024;-45
2023/09/03 06:29:18;;;;;;;10.85;4.80;;;;;;;27.04;44.84;99333.59;5092568;28;20020;-45
2023/09/03 06:31:44;;;;;;;8.68;3.85;;;;;;;27.24;44.97;99337.91;5092496;28;20482;-45
2023/09/03 06:34:10;;;;;;;15.02;6.95;;;;;;;27.56;44.42;99344.38;5092438;28;20486;-45
2023/09/03 06:36:35;;;;;;;38.47;24.63;;;;;;;27.65;43.76;99341.81;5091119;28;20118;-45
2023/09/03 06:39:02;;;;;;;12.57;6.25;;;;;;;27.86;43.79;99342.22;5091033;28;20020;-45
2023/09/03 06:41:28;;;;;;;5.65;3.80;;;;;;;27.99;43.15;99336.06;5092188;28;20016;-45
2023/09/03 06:43:54;;;;;;;8.57;3.70;;;;;;;28.08;43.49;99336.16;5091033;28;20115;-45
2023/09/03 06:46:19;;;;;;;9.73;3.95;;;;;;;28.32;42.53;99337.84;5092183;28;20133;-46
2023/09/03 06:48:45;;;;;;;15.00;5.43;;;;;;;28.58;42.04;99335.44;5092257;28;20115;-45
2023/09/03 06:51:11;;;;;;;17.55;6.20;;;;;;;28.97;41.53;99336.69;5092196;28;20024;-45
2023/09/03 06:53:37;;;;;;;11.15;3.85;;;;;;;29.55;40.54;99335.03;5090866;28;20032;-45
2023/09/03 06:56:03;;;;;;;20.33;5.88;;;;;;;29.93;39.83;99329.97;5090812;28;20032;-45
2023/09/03 06:58:29;;;;;;;10.98;4.85;;;;;;;30.34;38.86;99333.44;5092056;28;20031;-45
2023/09/03 07:00:55;;;;;;;24.30;10.57;;;;;;;30.79;38.14;99330.47;5091985;28;20013;-45
2023/09/03 07:03:20;;;;;;;18.20;7.53;;;;;;;31.39;37.23;99326.09;5091895;28;20034;-46
2023/09/03 07:05:46;;;;;;;16.50;6.15;;;;;;;32.15;35.67;99332.69;5092015;28;20103;-46
2023/09/03 07:08:13;;;;;;;12.43;4.75;;;;;;;32.78;34.65;99338.19;5091921;28;20055;-46
2023/09/03 07:10:39;;;;;;;14.10;5.22;;;;;;;33.37;33.69;99334.47;5090608;28;20450;-46
2023/09/03 07:13:04;;;;;;;19.13;4.55;;;;;;;33.82;32.70;99336.34;5091588;28;20117;-46
2023/09/03 07:15:30;;;;;;;29.33;5.65;;;;;;;33.93;32.73;99342.94;5090603;28;20092;-46
2023/09/03 07:17:56;;;;;;;16.20;4.60;;;;;;;33.92;32.74;99349.53;5090579;28;20119;-45
2023/09/03 07:20:21;;;;;;;11.18;3.58;;;;;;;34.35;32.03;99361.78;5090529;28;20024;-46
2023/09/03 07:22:47;;;;;;;18.10;4.88;;;;;;;34.74;31.15;99364.91;5091714;28;20020;-46
2023/09/03 07:25:13;;;;;;;16.88;5.05;;;;;;;34.50;31.32;99368.47;5091824;28;20028;-46
2023/09/03 07:27:39;;;;;;;22.52;6.13;;;;;;;34.36;31.61;99379.72;5092069;28;20394;-46
2023/09/03 07:30:08;;;;;;;22.13;4.38;;;;;;;34.38;31.10;99379.38;5091735;28;20466;-46
2023/09/03 07:32:36;;;;;;;17.42;5.40;;;;;;;34.33;31.51;99387.78;5090401;28;20086;-46
2023/09/03 07:35:04;;;;;;;19.13;4.28;;;;;;;34.59;31.01;99388.22;5091694;28;20397;-46
2023/09/03 07:37:30;;;;;;;10.05;3.85;;;;;;;35.04;30.35;99391.84;5094659;28;20509;-46
2023/09/03 07:39:56;;;;;;;12.25;4.65;;;;;;;35.33;30.17;99390.72;5095787;28;20039;-46
2023/09/03 07:42:22;;;;;;;11.27;4.28;;;;;;;35.53;29.67;99390.84;5095625;28;20417;-46
2023/09/03 07:44:47;;;;;;;17.30;5.18;;;;;;;35.75;29.58;99384.00;5095784;28;20039;-46
2023/09/03 07:47:13;;;;;;;9.68;3.60;;;;;;;36.02;29.05;99390.53;5095631;28;20028;-46
2023/09/03 07:49:39;;;;;;;11.38;3.58;;;;;;;36.61;28.51;99380.56;5095859;28;20026;-46
2023/09/03 07:52:07;;;;;;;14.35;3.85;;;;;;;36.81;28.34;99375.91;5096044;28;20428;-46
2023/09/03 07:54:32;;;;;;;6.70;2.83;;;;;;;37.13;28.07;99373.84;5095768;28;20166;-46
2023/09/03 07:56:58;;;;;;;5.00;2.83;;;;;;;37.48;27.54;99372.91;5095354;28;20118;-46
2023/09/03 07:59:24;;;;;;;6.72;2.97;;;;;;;37.63;27.35;99373.16;5094120;28;20032;-46
2023/09/03 08:01:49;;;;;;;5.00;2.67;;;;;;;37.80;26.93;99371.91;5095480;28;20048;-46
2023/09/03 08:04:15;;;;;;;11.20;3.92;;;;;;;38.32;26.55;99373.88;5095299;28;20077;-46
2023/09/03 08:06:41;;;;;;;20.70;3.60;;;;;;;38.94;25.73;99383.72;5095260;28;20476;-46
2023/09/03 08:09:06;;;;;;;6.15;3.05;;;;;;;39.46;24.90;99368.22;5095199;28;20043;-46
2023/09/03 08:11:32;;;;;;;9.43;3.67;;;;;;;39.05;25.17;99365.41;5095080;28;20035;-46
2023/09/03 08:14:00;;;;;;;13.57;4.60;;;;;;;39.15;25.12;99372.97;5094925;28;20086;-46
2023/09/03 08:16:26;;;;;;;7.68;3.60;;;;;;;38.89;25.24;99373.84;5095122;28;20493;-46
2023/09/03 08:18:52;;;;;;;13.52;4.60;;;;;;;38.52;25.96;99380.06;5076834;28;20399;-47
2023/09/03 08:21:17;;;;;;;30.00;6.75;;;;;;;38.45;25.44;99379.13;5093605;28;20372;-46
2023/09/03 08:23:43;;;;;;;9.63;3.80;;;;;;;38.63;25.26;99384.88;5094993;28;20024;-47
2023/09/03 08:26:09;;;;;;;15.43;5.13;;;;;;;38.88;24.95;99386.00;5093540;28;20020;-47
2023/09/03 08:28:35;;;;;;;16.70;4.28;;;;;;;39.18;24.34;99370.63;5093562;28;20027;-47
2023/09/03 08:31:01;;;;;;;23.75;7.22;;;;;;;39.06;24.50;99368.94;5094828;28;20390;-46
2023/09/03 08:33:26;;;;;;;19.83;4.50;;;;;;;38.89;24.44;99378.53;5094711;28;20401;-47
2023/09/03 08:35:52;;;;;;;14.40;4.00;;;;;;;38.85;24.72;99388.69;5094790;28;20032;-46
2023/09/03 08:38:18;;;;;;;12.95;3.60;;;;;;;38.85;24.68;99394.19;5093528;28;20028;-46
2023/09/03 08:40:44;;;;;;;31.13;23.90;;;;;;;38.89;24.32;99392.25;5094635;28;20016;-46
2023/09/03 08:43:12;;;;;;;16.40;5.18;;;;;;;38.88;24.34;99391.47;5094541;28;20024;-47
2023/09/03 08:45:45;;;;;;;6.93;3.30;;;;;;;38.55;24.50;99400.47;5094487;28;20024;-46
2023/09/03 08:48:11;;;;;;;;;;;;;;;38.85;25.01;99399.66;5094054;28;20032;-47
2023/09/03 08:50:39;;;;;;;7.90;3.33;;;;;;;38.93;24.48;99404.06;5093075;28;19961;-46
2023/09/03 08:53:05;;;;;;;8.32;3.35;;;;;;;38.76;24.79;99391.72;5094423;28;20117;-46
2023/09/03 08:55:32;;;;;;;12.48;3.72;;;;;;;38.91;24.99;99398.94;5094368;28;20099;-46
2023/09/03 08:57:59;;;;;;;5.70;2.42;;;;;;;39.15;24.12;99407.88;5094209;28;20025;-46
2023/09/03 09:00:25;;;;;;;6.95;3.30;;;;;;;38.77;24.95;99401.53;5094491;28;20020;-46
2023/09/03 09:02:53;;;;;;;7.00;2.55;;;;;;;38.46;25.29;99397.97;5094192;28;20106;-46
2023/09/03 09:05:19;;;;;;;6.60;2.55;;;;;;;38.51;24.96;99394.91;5094132;28;20031;-46
2023/09/03 09:07:46;;;;;;;14.60;4.05;;;;;;;38.25;25.79;99382.00;5094144;28;20115;-47
2023/09/03 09:10:16;;;;;;;18.33;3.55;;;;;;;38.36;24.96;99382.94;5094050;28;20016;-47
2023/09/03 09:12:58;;;;;;;9.13;3.58;;;;;;;38.97;24.64;99374.75;5093962;28;20099;-47
2023/09/03 09:15:24;;;;;;;13.93;3.35;;;;;;;39.50;23.90;99360.81;5094019;28;20046;-47
2023/09/03 09:17:50;;;;;;;11.32;3.42;;;;;;;40.38;22.93;99354.75;5093969;28;20103;-47
2023/09/03 09:20:16;;;;;;;17.75;4.30;;;;;;;41.60;21.67;99346.88;5093849;28;20031;-46
2023/09/03 09:22:47;;;;;;;10.20;3.30;;;;;;;42.44;20.85;99343.59;5094009;28;20390;-47
2023/09/03 09:25:21;;;;;;;6.53;2.75;;;;;;;42.92;20.56;99347.72;5093738;28;20016;-46
2023/09/03 09:27:47;;;;;;;6.45;2.95;;;;;;;43.11;19.81;99352.75;5093659;28;20513;-47
2023/09/03 09:30:16;;;;;;;5.00;2.65;;;;;;;43.02;19.80;99355.94;5093933;28;20028;-47
2023/09/03 09:32:43;;;;;;;5.07;2.53;;;;;;;42.88;20.00;99354.06;5092335;28;20024;-47
2023/09/03 09:35:09;;;;;;;7.00;2.67;;;;;;;43.00;19.97;99360.31;5093554;28;20027;-47
2023/09/03 09:37:39;;;;;;;4.50;2.55;;;;;;;43.38;19.70;99352.97;5093834;28;20435;-47
2023/09/03 09:40:09;;;;;;;4.93;2.60;;;;;;;43.73;19.10;99353.09;5093514;28;20027;-47
2023/09/03 09:42:50;;;;;;;5.32;2.08;;;;;;;43.73;18.90;99348.38;5092370;28;20028;-47
2023/09/03 09:45:16;;;;;;;3.70;2.83;;;;;;;43.47;18.89;99347.75;5093473;28;20455;-47
2023/09/03 09:47:42;;;;;;;14.73;5.28;;;;;;;43.57;19.22;99350.81;5093419;28;20020;-47
2023/09/03 09:50:08;;;;;;;16.40;4.35;;;;;;;43.59;19.19;99346.47;5093231;28;20024;-47
2023/09/03 09:52:35;;;;;;;13.77;3.67;;;;;;;43.67;19.27;99356.31;5093498;28;20390;-47
2023/09/03 09:55:02;;;;;;;6.22;2.78;;;;;;;43.64;18.88;99348.78;5093222;28;20085;-47
2023/09/03 09:57:27;;;;;;;14.07;4.07;;;;;;;43.65;18.99;99347.59;5093190;28;20521;-47
2023/09/03 10:00:01;;;;;;;16.50;5.13;;;;;;;43.84;18.71;99346.25;5091999;28;20106;-46
2023/09/03 10:02:27;;;;;;;9.30;3.45;;;;;;;43.72;18.67;99352.31;5091725;28;20031;-47
2023/09/03 10:04:54;;;;;;;25.67;22.73;;;;;;;44.01;18.54;99352.03;5092978;28;20024;-47
2023/09/03 10:07:20;;;;;;;4.82;3.17;;;;;;;44.30;17.85;99354.53;5092904;28;20020;-47
2023/09/03 10:09:46;;;;;;;8.65;3.00;;;;;;;44.28;17.62;99364.00;5092945;28;20026;-47
2023/09/03 10:12:13;;;;;;;14.35;4.07;;;;;;;44.07;18.21;99355.94;5092867;28;20504;-48
2023/09/03 10:14:39;;;;;;;6.63;2.25;;;;;;;43.79;17.90;99348.69;5092669;28;20093;-49
2023/09/03 10:17:07;;;;;;;17.88;4.03;;;;;;;43.83;18.49;99347.47;5091406;28;20024;-49
2023/09/03 10:19:50;;;;;;;9.98;3.40;;;;;;;44.13;17.74;99348.78;5092951;28;20044;-49
2023/09/03 10:22:19;;;;;;;9.80;2.78;;;;;;;43.72;18.19;99349.53;5092735;28;20024;-48
2023/09/03 10:25:00;;;;;;;10.73;3.78;;;;;;;43.52;18.87;99354.81;5091404;28;20032;-49
2023/09/03 10:27:36;;;;;;;5.13;2.50;;;;;;;43.45;18.71;99347.38;5092708;28;20035;-49
2023/09/03 10:30:07;;;;;;;9.75;2.70;;;;;;;43.33;18.40;99355.38;5092614;28;20032;-48
2023/09/03 10:32:35;;;;;;;8.80;3.42;;;;;;;43.20;19.08;99350.28;5091402;28;20031;-49
2023/09/03 10:35:08;;;;;;;10.43;3.25;;;;;;;43.67;18.23;99344.47;5092495;28;20520;-49
2023/09/03 10:37:40;;;;;;;20.48;7.30;;;;;;;43.67;18.96;99345.25;5092484;28;20024;-48
2023/09/03 10:40:20;;;;;;;5.78;3.00;;;;;;;43.91;18.67;99337.13;5092403;28;20036;-49
2023/09/03 10:42:49;;;;;;;10.07;3.45;;;;;;;43.71;18.42;99338.88;5090986;28;20119;-49
2023/09/03 10:45:15;;;;;;;12.18;3.50;;;;;;;43.42;18.75;99347.41;5092254;28;20031;-49
2023/09/03 10:48:01;;;;;;;9.05;3.78;;;;;;;43.02;19.01;99344.88;5092282;28;20028;-49
2023/09/03 10:50:48;;;;;;;5.75;2.70;;;;;;;43.04;19.11;99341.72;5092191;28;20031;-49
2023/09/03 10:53:44;;;;;;;3.00;2.10;;;;;;;43.12;18.92;99339.72;5092501;28;20035;-49
2023/09/03 10:56:13;;;;;;;7.22;2.28;;;;;;;43.51;18.71;99335.88;5092163;28;20024;-49
2023/09/03 10:58:53;;;;;;;3.10;2.00;;;;;;;43.55;18.37;99333.88;5092368;28;20051;-49
2023/09/03 11:01:24;;;;;;;4.20;2.20;;;;;;;43.40;18.22;99341.50;5092259;28;20020;-49
2023/09/03 11:03:52;;;;;;;11.52;3.60;;;;;;;43.50;18.63;99335.09;5092080;28;20016;-49
2023/09/03 11:06:22;;;;;;;6.55;2.70;;;;;;;43.99;17.90;99330.31;5092022;28;20028;-49
2023/09/03 11:09:12;;;;;;;16.73;4.38;;;;;;;43.53;18.32;99334.28;5092027;28;20028;-49
2023/09/03 11:11:39;;;;;;;9.63;3.13;;;;;;;43.32;18.50;99329.72;5091360;28;20405;-49
2023/09/03 11:14:12;;;;;;;9.50;3.00;;;;;;;43.39;18.20;99329.66;5091730;28;20094;-49
2023/09/03 11:16:40;;;;;;;;;;;;;;;43.43;18.36;99307.53;5092335;28;20110;-48
2023/09/03 11:19:09;;;;;;;13.48;2.88;;;;;;;43.27;18.28;99314.38;5091847;28;19912;-48
2023/09/03 11:21:36;;;;;;;9.57;2.60;;;;;;;43.60;17.44;99311.31;5091811;28;20020;-49
2023/09/03 11:24:08;;;;;;;7.70;2.75;;;;;;;43.29;18.16;99313.97;5091816;28;20028;-49
2023/09/03 11:26:35;;;;;;;6.40;3.08;;;;;;;43.24;18.30;99322.66;5091805;28;20028;-49
2023/09/03 11:29:02;;;;;;;5.90;2.60;;;;;;;43.28;17.97;99328.97;5091709;28;20036;-49
2023/09/03 11:31:27;;;;;;;4.75;1.83;;;;;;;43.43;17.31;99332.41;5090394;28;20032;-49